sensor_id;sensor_type;location;lat;lon;timestamp;P1;durP1;ratioP1;P2;durP2;ratioP2
46084;SDS011;31823;47.032;8.310;2023-11-21T00:01:01;1.02;;;0.57;;
46084;SDS011;31823;47.032;8.310;2023-11-21T00:03:29;0.70;;;0.70;;
46084;SDS011;31823;47.032;8.310;2023-11-21T00:05:57;3.15;;;1.13;;
46084;SDS011;31823;47.032;8.310;2023-11-21T00:08:23;1.15;;;0.80;;
46084;SDS011;31823;47.032;8.310;2023-11-21T00:10:49;2.92;;;0.75;;
46084;SDS011;31823;47.032;8.310;2023-11-21T00:13:14;0.75;;;0.75;;
46084;SDS011;31823;47.032;8.310;2023-11-21T00:15:40;0.75;;;0.70;;
46084;SDS011;31823;47.032;8.310;2023-11-21T00:18:05;3.42;;;1.00;;
46084;SDS011;31823;47.032;8.310;2023-11-21T00:20:31;4.47;;;0.70;;
46084;SDS011;31823;47.032;8.310;2023-11-21T00:22:57;1.48;;;0.60;;
46084;SDS011;31823;47.032;8.310;2023-11-21T00:25:22;1.70;;;0.75;;
46084;SDS011;31823;47.032;8.310;2023-11-21T00:27:49;3.38;;;0.90;;
46084;SDS011;31823;47.032;8.310;2023-11-21T00:30:15;0.70;;;0.70;;
46084;SDS011;31823;47.032;8.310;2023-11-21T00:32:41;3.80;;;0.60;;
46084;SDS011;31823;47.032;8.310;2023-11-21T00:35:06;2.78;;;0.82;;
46084;SDS011;31823;47.032;8.310;2023-11-21T00:37:32;1.35;;;0.70;;
46084;SDS011;31823;47.032;8.310;2023-11-21T00:39:58;2.30;;;0.82;;
46084;SDS011;31823;47.032;8.310;2023-11-21T00:42:23;1.33;;;0.77;;
46084;SDS011;31823;47.032;8.310;2023-11-21T00:44:50;1.13;;;0.73;;
46084;SDS011;31823;47.032;8.310;2023-11-21T00:47:16;1.17;;;1.08;;
46084;SDS011;31823;47.032;8.310;2023-11-21T00:49:41;1.42;;;0.80;;
46084;SDS011;31823;47.032;8.310;2023-11-21T00:52:07;2.53;;;0.60;;
46084;SDS011;31823;47.032;8.310;2023-11-21T00:54:33;1.13;;;0.70;;
46084;SDS011;31823;47.032;8.310;2023-11-21T00:56:58;0.57;;;0.40;;
46084;SDS011;31823;47.032;8.310;2023-11-21T00:59:24;0.90;;;0.80;;
46084;SDS011;31823;47.032;8.310;2023-11-21T01:01:50;3.05;;;0.60;;
46084;SDS011;31823;47.032;8.310;2023-11-21T01:04:15;0.82;;;0.65;;
46084;SDS011;31823;47.032;8.310;2023-11-21T01:06:41;1.23;;;0.88;;
46084;SDS011;31823;47.032;8.310;2023-11-21T01:09:07;2.05;;;1.00;;
46084;SDS011;31823;47.032;8.310;2023-11-21T01:11:34;1.35;;;0.80;;
46084;SDS011;31823;47.032;8.310;2023-11-21T01:14:02;3.15;;;0.90;;
46084;SDS011;31823;47.032;8.310;2023-11-21T01:16:29;2.03;;;1.42;;
46084;SDS011;31823;47.032;8.310;2023-11-21T01:18:57;1.27;;;1.00;;
46084;SDS011;31823;47.032;8.310;2023-11-21T01:21:24;0.80;;;0.80;;
46084;SDS011;31823;47.032;8.310;2023-11-21T01:23:49;2.47;;;0.90;;
46084;SDS011;31823;47.032;8.310;2023-11-21T01:26:15;2.80;;;0.70;;
46084;SDS011;31823;47.032;8.310;2023-11-21T01:28:40;0.80;;;0.75;;
46084;SDS011;31823;47.032;8.310;2023-11-21T01:31:07;2.28;;;1.02;;
46084;SDS011;31823;47.032;8.310;2023-11-21T01:33:32;2.55;;;0.95;;
46084;SDS011;31823;47.032;8.310;2023-11-21T01:35:58;1.55;;;0.95;;
46084;SDS011;31823;47.032;8.310;2023-11-21T01:38:24;3.30;;;0.90;;
46084;SDS011;31823;47.032;8.310;2023-11-21T01:40:50;1.50;;;1.10;;
46084;SDS011;31823;47.032;8.310;2023-11-21T01:43:16;1.90;;;1.08;;
46084;SDS011;31823;47.032;8.310;2023-11-21T01:45:42;1.15;;;1.00;;
46084;SDS011;31823;47.032;8.310;2023-11-21T01:48:08;2.08;;;1.20;;
46084;SDS011;31823;47.032;8.310;2023-11-21T01:50:33;1.45;;;1.02;;
46084;SDS011;31823;47.032;8.310;2023-11-21T01:52:59;1.73;;;0.80;;
46084;SDS011;31823;47.032;8.310;2023-11-21T01:55:26;5.97;;;1.05;;
46084;SDS011;31823;47.032;8.310;2023-11-21T01:57:55;1.25;;;0.70;;
46084;SDS011;31823;47.032;8.310;2023-11-21T02:00:24;3.42;;;1.15;;
46084;SDS011;31823;47.032;8.310;2023-11-21T02:02:51;5.85;;;1.10;;
46084;SDS011;31823;47.032;8.310;2023-11-21T02:05:17;2.50;;;1.63;;
46084;SDS011;31823;47.032;8.310;2023-11-21T02:07:43;4.68;;;1.23;;
46084;SDS011;31823;47.032;8.310;2023-11-21T02:10:10;2.85;;;0.98;;
46084;SDS011;31823;47.032;8.310;2023-11-21T02:12:39;1.23;;;0.80;;
46084;SDS011;31823;47.032;8.310;2023-11-21T02:15:07;0.70;;;0.70;;
46084;SDS011;31823;47.032;8.310;2023-11-21T02:17:42;1.38;;;1.27;;
46084;SDS011;31823;47.032;8.310;2023-11-21T02:20:19;2.25;;;1.05;;
46084;SDS011;31823;47.032;8.310;2023-11-21T02:22:49;2.83;;;1.20;;
46084;SDS011;31823;47.032;8.310;2023-11-21T02:25:23;1.60;;;1.15;;
46084;SDS011;31823;47.032;8.310;2023-11-21T02:27:55;3.95;;;1.17;;
46084;SDS011;31823;47.032;8.310;2023-11-21T02:30:21;5.10;;;0.95;;
46084;SDS011;31823;47.032;8.310;2023-11-21T02:32:51;0.70;;;0.70;;
46084;SDS011;31823;47.032;8.310;2023-11-21T02:35:20;2.78;;;1.40;;
46084;SDS011;31823;47.032;8.310;2023-11-21T02:37:46;1.60;;;1.08;;
46084;SDS011;31823;47.032;8.310;2023-11-21T02:40:12;7.13;;;1.73;;
46084;SDS011;31823;47.032;8.310;2023-11-21T02:42:42;1.10;;;1.00;;
46084;SDS011;31823;47.032;8.310;2023-11-21T02:45:12;1.20;;;1.10;;
46084;SDS011;31823;47.032;8.310;2023-11-21T02:47:41;1.70;;;1.17;;
46084;SDS011;31823;47.032;8.310;2023-11-21T02:50:07;1.23;;;1.13;;
46084;SDS011;31823;47.032;8.310;2023-11-21T02:52:34;1.63;;;1.10;;
46084;SDS011;31823;47.032;8.310;2023-11-21T02:55:00;2.50;;;1.13;;
46084;SDS011;31823;47.032;8.310;2023-11-21T02:57:27;4.47;;;1.05;;
46084;SDS011;31823;47.032;8.310;2023-11-21T02:59:52;3.83;;;1.55;;
46084;SDS011;31823;47.032;8.310;2023-11-21T03:02:18;1.40;;;1.00;;
46084;SDS011;31823;47.032;8.310;2023-11-21T03:04:43;1.40;;;1.02;;
46084;SDS011;31823;47.032;8.310;2023-11-21T03:07:09;3.17;;;1.05;;
46084;SDS011;31823;47.032;8.310;2023-11-21T03:09:35;4.82;;;1.15;;
46084;SDS011;31823;47.032;8.310;2023-11-21T03:12:01;1.73;;;1.02;;
46084;SDS011;31823;47.032;8.310;2023-11-21T03:14:27;1.63;;;1.00;;
46084;SDS011;31823;47.032;8.310;2023-11-21T03:16:52;2.28;;;1.02;;
46084;SDS011;31823;47.032;8.310;2023-11-21T03:19:18;1.58;;;1.40;;
46084;SDS011;31823;47.032;8.310;2023-11-21T03:21:43;3.75;;;1.15;;
46084;SDS011;31823;47.032;8.310;2023-11-21T03:24:09;2.55;;;1.40;;
46084;SDS011;31823;47.032;8.310;2023-11-21T03:26:34;4.82;;;1.92;;
46084;SDS011;31823;47.032;8.310;2023-11-21T03:29:00;4.05;;;1.70;;
46084;SDS011;31823;47.032;8.310;2023-11-21T03:31:25;3.20;;;1.30;;
46084;SDS011;31823;47.032;8.310;2023-11-21T03:33:51;2.83;;;1.60;;
46084;SDS011;31823;47.032;8.310;2023-11-21T03:36:19;1.45;;;1.10;;
46084;SDS011;31823;47.032;8.310;2023-11-21T03:38:44;2.50;;;1.50;;
46084;SDS011;31823;47.032;8.310;2023-11-21T03:41:10;1.33;;;1.20;;
46084;SDS011;31823;47.032;8.310;2023-11-21T03:43:36;1.45;;;1.20;;
46084;SDS011;31823;47.032;8.310;2023-11-21T03:46:02;1.00;;;0.88;;
46084;SDS011;31823;47.032;8.310;2023-11-21T03:48:28;2.70;;;1.10;;
46084;SDS011;31823;47.032;8.310;2023-11-21T03:50:54;1.95;;;1.42;;
46084;SDS011;31823;47.032;8.310;2023-11-21T03:53:20;3.92;;;0.98;;
46084;SDS011;31823;47.032;8.310;2023-11-21T03:55:45;2.47;;;1.05;;
46084;SDS011;31823;47.032;8.310;2023-11-21T03:58:11;3.65;;;1.67;;
46084;SDS011;31823;47.032;8.310;2023-11-21T04:00:37;2.47;;;1.27;;
46084;SDS011;31823;47.032;8.310;2023-11-21T04:03:03;4.18;;;1.30;;
46084;SDS011;31823;47.032;8.310;2023-11-21T04:05:28;5.53;;;1.70;;
46084;SDS011;31823;47.032;8.310;2023-11-21T04:07:54;2.38;;;1.50;;
46084;SDS011;31823;47.032;8.310;2023-11-21T04:10:19;1.40;;;1.27;;
46084;SDS011;31823;47.032;8.310;2023-11-21T04:12:45;2.65;;;1.33;;
46084;SDS011;31823;47.032;8.310;2023-11-21T04:15:11;5.93;;;1.33;;
46084;SDS011;31823;47.032;8.310;2023-11-21T04:17:40;1.65;;;1.00;;
46084;SDS011;31823;47.032;8.310;2023-11-21T04:20:06;1.30;;;1.20;;
46084;SDS011;31823;47.032;8.310;2023-11-21T04:22:40;3.22;;;1.30;;
46084;SDS011;31823;47.032;8.310;2023-11-21T04:25:09;3.00;;;1.40;;
46084;SDS011;31823;47.032;8.310;2023-11-21T04:27:38;1.92;;;1.35;;
46084;SDS011;31823;47.032;8.310;2023-11-21T04:30:04;3.03;;;1.20;;
46084;SDS011;31823;47.032;8.310;2023-11-21T04:32:30;2.88;;;1.45;;
46084;SDS011;31823;47.032;8.310;2023-11-21T04:34:56;4.47;;;1.42;;
46084;SDS011;31823;47.032;8.310;2023-11-21T04:37:21;3.45;;;1.20;;
46084;SDS011;31823;47.032;8.310;2023-11-21T04:39:47;7.13;;;0.90;;
46084;SDS011;31823;47.032;8.310;2023-11-21T04:42:13;2.53;;;1.33;;
46084;SDS011;31823;47.032;8.310;2023-11-21T04:44:38;2.33;;;0.90;;
46084;SDS011;31823;47.032;8.310;2023-11-21T04:47:06;2.30;;;1.50;;
46084;SDS011;31823;47.032;8.310;2023-11-21T04:49:32;1.40;;;0.98;;
46084;SDS011;31823;47.032;8.310;2023-11-21T04:51:58;4.35;;;1.08;;
46084;SDS011;31823;47.032;8.310;2023-11-21T04:54:23;1.95;;;1.58;;
46084;SDS011;31823;47.032;8.310;2023-11-21T04:56:49;2.72;;;1.00;;
46084;SDS011;31823;47.032;8.310;2023-11-21T04:59:15;4.30;;;1.38;;
46084;SDS011;31823;47.032;8.310;2023-11-21T05:01:40;3.03;;;1.48;;
46084;SDS011;31823;47.032;8.310;2023-11-21T05:04:06;0.93;;;0.93;;
46084;SDS011;31823;47.032;8.310;2023-11-21T05:06:33;2.97;;;1.10;;
46084;SDS011;31823;47.032;8.310;2023-11-21T05:08:59;2.00;;;1.33;;
46084;SDS011;31823;47.032;8.310;2023-11-21T05:11:25;2.53;;;1.70;;
46084;SDS011;31823;47.032;8.310;2023-11-21T05:13:51;1.00;;;1.00;;
46084;SDS011;31823;47.032;8.310;2023-11-21T05:16:18;1.20;;;1.10;;
46084;SDS011;31823;47.032;8.310;2023-11-21T05:18:47;1.75;;;1.48;;
46084;SDS011;31823;47.032;8.310;2023-11-21T05:21:12;1.77;;;0.80;;
46084;SDS011;31823;47.032;8.310;2023-11-21T05:23:38;1.67;;;0.98;;
46084;SDS011;31823;47.032;8.310;2023-11-21T05:26:04;2.65;;;1.15;;
46084;SDS011;31823;47.032;8.310;2023-11-21T05:28:30;5.25;;;2.47;;
46084;SDS011;31823;47.032;8.310;2023-11-21T05:30:55;5.32;;;2.85;;
46084;SDS011;31823;47.032;8.310;2023-11-21T05:33:21;4.20;;;1.90;;
46084;SDS011;31823;47.032;8.310;2023-11-21T05:35:46;4.10;;;2.03;;
46084;SDS011;31823;47.032;8.310;2023-11-21T05:38:14;4.38;;;1.90;;
46084;SDS011;31823;47.032;8.310;2023-11-21T05:40:39;4.55;;;2.53;;
46084;SDS011;31823;47.032;8.310;2023-11-21T05:43:05;5.57;;;3.63;;
46084;SDS011;31823;47.032;8.310;2023-11-21T05:45:31;9.82;;;4.90;;
46084;SDS011;31823;47.032;8.310;2023-11-21T05:47:58;9.25;;;5.00;;
46084;SDS011;31823;47.032;8.310;2023-11-21T05:50:24;7.30;;;3.38;;
46084;SDS011;31823;47.032;8.310;2023-11-21T05:52:49;7.13;;;4.20;;
46084;SDS011;31823;47.032;8.310;2023-11-21T05:55:15;11.48;;;4.22;;
46084;SDS011;31823;47.032;8.310;2023-11-21T05:57:42;11.57;;;4.47;;
46084;SDS011;31823;47.032;8.310;2023-11-21T06:00:09;6.78;;;4.22;;
46084;SDS011;31823;47.032;8.310;2023-11-21T06:02:40;6.13;;;3.03;;
46084;SDS011;31823;47.032;8.310;2023-11-21T06:05:07;5.53;;;2.80;;
46084;SDS011;31823;47.032;8.310;2023-11-21T06:07:33;7.65;;;2.92;;
46084;SDS011;31823;47.032;8.310;2023-11-21T06:10:00;4.93;;;2.67;;
46084;SDS011;31823;47.032;8.310;2023-11-21T06:12:36;2.65;;;1.98;;
46084;SDS011;31823;47.032;8.310;2023-11-21T06:15:05;2.65;;;1.92;;
46084;SDS011;31823;47.032;8.310;2023-11-21T06:17:33;3.63;;;1.90;;
46084;SDS011;31823;47.032;8.310;2023-11-21T06:20:01;4.97;;;2.22;;
46084;SDS011;31823;47.032;8.310;2023-11-21T06:22:34;3.28;;;1.65;;
46084;SDS011;31823;47.032;8.310;2023-11-21T06:25:03;4.70;;;2.00;;
46084;SDS011;31823;47.032;8.310;2023-11-21T06:27:34;2.42;;;1.70;;
46084;SDS011;31823;47.032;8.310;2023-11-21T06:30:02;2.28;;;1.88;;
46084;SDS011;31823;47.032;8.310;2023-11-21T06:32:28;4.00;;;2.08;;
46084;SDS011;31823;47.032;8.310;2023-11-21T06:34:55;2.58;;;1.80;;
46084;SDS011;31823;47.032;8.310;2023-11-21T06:37:21;4.07;;;1.65;;
46084;SDS011;31823;47.032;8.310;2023-11-21T06:39:48;2.60;;;1.60;;
46084;SDS011;31823;47.032;8.310;2023-11-21T06:42:17;2.92;;;1.77;;
46084;SDS011;31823;47.032;8.310;2023-11-21T06:44:44;2.50;;;1.40;;
46084;SDS011;31823;47.032;8.310;2023-11-21T06:47:10;2.85;;;1.75;;
46084;SDS011;31823;47.032;8.310;2023-11-21T06:49:36;3.58;;;1.92;;
46084;SDS011;31823;47.032;8.310;2023-11-21T06:52:03;5.88;;;1.70;;
46084;SDS011;31823;47.032;8.310;2023-11-21T06:54:30;1.88;;;1.35;;
46084;SDS011;31823;47.032;8.310;2023-11-21T06:56:56;2.10;;;1.77;;
46084;SDS011;31823;47.032;8.310;2023-11-21T06:59:23;4.10;;;1.50;;
46084;SDS011;31823;47.032;8.310;2023-11-21T07:01:48;2.75;;;1.75;;
46084;SDS011;31823;47.032;8.310;2023-11-21T07:04:14;2.78;;;2.40;;
46084;SDS011;31823;47.032;8.310;2023-11-21T07:06:40;4.72;;;2.17;;
46084;SDS011;31823;47.032;8.310;2023-11-21T07:09:06;5.43;;;2.10;;
46084;SDS011;31823;47.032;8.310;2023-11-21T07:11:33;2.63;;;1.60;;
46084;SDS011;31823;47.032;8.310;2023-11-21T07:13:59;7.03;;;2.67;;
46084;SDS011;31823;47.032;8.310;2023-11-21T07:16:27;5.03;;;1.98;;
46084;SDS011;31823;47.032;8.310;2023-11-21T07:18:55;2.88;;;1.67;;
46084;SDS011;31823;47.032;8.310;2023-11-21T07:21:21;3.88;;;2.58;;
46084;SDS011;31823;47.032;8.310;2023-11-21T07:23:46;8.60;;;2.40;;
46084;SDS011;31823;47.032;8.310;2023-11-21T07:26:12;2.63;;;2.15;;
46084;SDS011;31823;47.032;8.310;2023-11-21T07:28:37;2.42;;;1.73;;
46084;SDS011;31823;47.032;8.310;2023-11-21T07:31:03;3.42;;;2.25;;
46084;SDS011;31823;47.032;8.310;2023-11-21T07:33:29;4.20;;;2.10;;
46084;SDS011;31823;47.032;8.310;2023-11-21T07:35:54;6.07;;;3.10;;
46084;SDS011;31823;47.032;8.310;2023-11-21T07:38:20;3.83;;;2.17;;
46084;SDS011;31823;47.032;8.310;2023-11-21T07:40:45;3.47;;;2.15;;
46084;SDS011;31823;47.032;8.310;2023-11-21T07:43:11;3.65;;;2.10;;
46084;SDS011;31823;47.032;8.310;2023-11-21T07:45:37;4.22;;;2.35;;
46084;SDS011;31823;47.032;8.310;2023-11-21T07:48:02;5.75;;;3.00;;
46084;SDS011;31823;47.032;8.310;2023-11-21T07:50:30;3.28;;;2.20;;
46084;SDS011;31823;47.032;8.310;2023-11-21T07:52:56;4.65;;;2.33;;
46084;SDS011;31823;47.032;8.310;2023-11-21T07:55:22;4.20;;;2.40;;
46084;SDS011;31823;47.032;8.310;2023-11-21T07:57:49;9.75;;;3.20;;
46084;SDS011;31823;47.032;8.310;2023-11-21T08:00:15;6.20;;;2.53;;
46084;SDS011;31823;47.032;8.310;2023-11-21T08:02:41;5.93;;;3.03;;
46084;SDS011;31823;47.032;8.310;2023-11-21T08:05:07;7.85;;;3.65;;
46084;SDS011;31823;47.032;8.310;2023-11-21T08:07:33;5.85;;;3.17;;
46084;SDS011;31823;47.032;8.310;2023-11-21T08:09:59;9.35;;;2.80;;
46084;SDS011;31823;47.032;8.310;2023-11-21T08:12:25;6.82;;;2.60;;
46084;SDS011;31823;47.032;8.310;2023-11-21T08:14:52;7.50;;;2.70;;
46084;SDS011;31823;47.032;8.310;2023-11-21T08:17:18;6.22;;;2.97;;
46084;SDS011;31823;47.032;8.310;2023-11-21T08:19:45;5.53;;;2.92;;
46084;SDS011;31823;47.032;8.310;2023-11-21T08:22:14;3.88;;;2.47;;
46084;SDS011;31823;47.032;8.310;2023-11-21T08:24:42;5.68;;;2.50;;
46084;SDS011;31823;47.032;8.310;2023-11-21T08:27:07;5.40;;;2.25;;
46084;SDS011;31823;47.032;8.310;2023-11-21T08:29:33;4.43;;;2.50;;
46084;SDS011;31823;47.032;8.310;2023-11-21T08:31:59;8.43;;;2.58;;
46084;SDS011;31823;47.032;8.310;2023-11-21T08:34:25;4.55;;;2.38;;
46084;SDS011;31823;47.032;8.310;2023-11-21T08:36:50;2.55;;;1.67;;
46084;SDS011;31823;47.032;8.310;2023-11-21T08:39:16;3.15;;;1.77;;
46084;SDS011;31823;47.032;8.310;2023-11-21T08:41:44;2.20;;;1.85;;
46084;SDS011;31823;47.032;8.310;2023-11-21T08:44:09;3.42;;;2.25;;
46084;SDS011;31823;47.032;8.310;2023-11-21T08:46:35;4.97;;;1.60;;
46084;SDS011;31823;47.032;8.310;2023-11-21T08:49:03;4.70;;;3.47;;
46084;SDS011;31823;47.032;8.310;2023-11-21T08:51:29;2.83;;;2.38;;
46084;SDS011;31823;47.032;8.310;2023-11-21T08:53:54;3.40;;;1.70;;
46084;SDS011;31823;47.032;8.310;2023-11-21T08:56:24;2.95;;;1.80;;
46084;SDS011;31823;47.032;8.310;2023-11-21T08:58:50;1.98;;;1.60;;
46084;SDS011;31823;47.032;8.310;2023-11-21T09:01:15;3.95;;;1.92;;
46084;SDS011;31823;47.032;8.310;2023-11-21T09:03:42;5.82;;;2.72;;
46084;SDS011;31823;47.032;8.310;2023-11-21T09:06:08;3.83;;;2.67;;
46084;SDS011;31823;47.032;8.310;2023-11-21T09:08:34;2.97;;;1.88;;
46084;SDS011;31823;47.032;8.310;2023-11-21T09:11:00;5.97;;;1.80;;
46084;SDS011;31823;47.032;8.310;2023-11-21T09:13:26;4.32;;;1.33;;
46084;SDS011;31823;47.032;8.310;2023-11-21T09:15:51;8.43;;;1.23;;
46084;SDS011;31823;47.032;8.310;2023-11-21T09:18:17;6.82;;;1.95;;
46084;SDS011;31823;47.032;8.310;2023-11-21T09:20:42;1.30;;;1.20;;
46084;SDS011;31823;47.032;8.310;2023-11-21T09:23:11;1.80;;;1.55;;
46084;SDS011;31823;47.032;8.310;2023-11-21T09:25:37;1.55;;;1.00;;
46084;SDS011;31823;47.032;8.310;2023-11-21T09:28:03;2.33;;;1.52;;
46084;SDS011;31823;47.032;8.310;2023-11-21T09:30:32;1.38;;;1.00;;
46084;SDS011;31823;47.032;8.310;2023-11-21T09:32:59;5.70;;;1.50;;
46084;SDS011;31823;47.032;8.310;2023-11-21T09:35:26;1.90;;;1.08;;
46084;SDS011;31823;47.032;8.310;2023-11-21T09:37:52;2.03;;;1.10;;
46084;SDS011;31823;47.032;8.310;2023-11-21T09:40:20;1.77;;;1.30;;
46084;SDS011;31823;47.032;8.310;2023-11-21T09:42:56;1.40;;;1.17;;
46084;SDS011;31823;47.032;8.310;2023-11-21T09:45:31;1.25;;;0.90;;
46084;SDS011;31823;47.032;8.310;2023-11-21T09:48:00;1.63;;;1.13;;
46084;SDS011;31823;47.032;8.310;2023-11-21T09:50:27;4.32;;;1.20;;
46084;SDS011;31823;47.032;8.310;2023-11-21T09:55:31;1.35;;;1.00;;
46084;SDS011;31823;47.032;8.310;2023-11-21T09:58:01;3.03;;;1.00;;
46084;SDS011;31823;47.032;8.310;2023-11-21T10:00:30;1.17;;;1.08;;
46084;SDS011;31823;47.032;8.310;2023-11-21T10:02:58;1.10;;;1.00;;
46084;SDS011;31823;47.032;8.310;2023-11-21T10:05:24;1.58;;;1.25;;
46084;SDS011;31823;47.032;8.310;2023-11-21T10:07:50;2.15;;;1.00;;
46084;SDS011;31823;47.032;8.310;2023-11-21T10:10:17;1.00;;;0.90;;
46084;SDS011;31823;47.032;8.310;2023-11-21T10:12:46;5.30;;;1.00;;
46084;SDS011;31823;47.032;8.310;2023-11-21T10:15:14;2.83;;;1.30;;
46084;SDS011;31823;47.032;8.310;2023-11-21T10:17:41;2.13;;;1.00;;
46084;SDS011;31823;47.032;8.310;2023-11-21T10:20:13;1.42;;;1.30;;
46084;SDS011;31823;47.032;8.310;2023-11-21T10:22:42;1.50;;;1.05;;
46084;SDS011;31823;47.032;8.310;2023-11-21T10:25:08;1.52;;;1.05;;
46084;SDS011;31823;47.032;8.310;2023-11-21T10:27:35;1.48;;;1.20;;
46084;SDS011;31823;47.032;8.310;2023-11-21T10:30:03;2.50;;;1.67;;
46084;SDS011;31823;47.032;8.310;2023-11-21T10:32:30;1.13;;;1.00;;
46084;SDS011;31823;47.032;8.310;2023-11-21T10:34:58;1.30;;;1.20;;
46084;SDS011;31823;47.032;8.310;2023-11-21T10:37:34;2.97;;;1.38;;
46084;SDS011;31823;47.032;8.310;2023-11-21T10:40:00;1.13;;;1.00;;
46084;SDS011;31823;47.032;8.310;2023-11-21T10:42:26;2.38;;;1.23;;
46084;SDS011;31823;47.032;8.310;2023-11-21T10:44:54;1.45;;;1.02;;
46084;SDS011;31823;47.032;8.310;2023-11-21T10:47:20;2.80;;;1.20;;
46084;SDS011;31823;47.032;8.310;2023-11-21T10:49:50;1.65;;;1.13;;
46084;SDS011;31823;47.032;8.310;2023-11-21T10:52:18;1.77;;;0.88;;
46084;SDS011;31823;47.032;8.310;2023-11-21T10:54:45;5.30;;;1.13;;
46084;SDS011;31823;47.032;8.310;2023-11-21T10:57:11;1.05;;;0.95;;
46084;SDS011;31823;47.032;8.310;2023-11-21T10:59:41;1.63;;;1.10;;
46084;SDS011;31823;47.032;8.310;2023-11-21T11:02:18;2.50;;;1.23;;
46084;SDS011;31823;47.032;8.310;2023-11-21T11:04:50;2.13;;;1.30;;
46084;SDS011;31823;47.032;8.310;2023-11-21T11:07:17;3.88;;;1.42;;
46084;SDS011;31823;47.032;8.310;2023-11-21T11:09:44;0.88;;;0.88;;
46084;SDS011;31823;47.032;8.310;2023-11-21T11:12:10;1.30;;;1.05;;
46084;SDS011;31823;47.032;8.310;2023-11-21T11:14:36;3.33;;;1.60;;
46084;SDS011;31823;47.032;8.310;2023-11-21T11:17:05;0.82;;;0.80;;
46084;SDS011;31823;47.032;8.310;2023-11-21T11:19:31;4.15;;;1.10;;
46084;SDS011;31823;47.032;8.310;2023-11-21T11:30:20;1.23;;;1.13;;
46084;SDS011;31823;47.032;8.310;2023-11-21T11:33:39;1.23;;;1.00;;
46084;SDS011;31823;47.032;8.310;2023-11-21T11:35:52;4.50;;;1.20;;
46084;SDS011;31823;47.032;8.310;2023-11-21T11:38:20;1.02;;;1.00;;
46084;SDS011;31823;47.032;8.310;2023-11-21T11:40:48;1.42;;;1.13;;
46084;SDS011;31823;47.032;8.310;2023-11-21T11:43:27;1.40;;;1.10;;
46084;SDS011;31823;47.032;8.310;2023-11-21T11:45:57;1.73;;;1.05;;
46084;SDS011;31823;47.032;8.310;2023-11-21T11:48:28;1.90;;;1.20;;
46084;SDS011;31823;47.032;8.310;2023-11-21T11:53:37;1.23;;;0.98;;
46084;SDS011;31823;47.032;8.310;2023-11-21T11:56:26;1.55;;;1.05;;
46084;SDS011;31823;47.032;8.310;2023-11-21T11:58:59;1.65;;;1.10;;
46084;SDS011;31823;47.032;8.310;2023-11-21T12:01:27;2.28;;;1.40;;
46084;SDS011;31823;47.032;8.310;2023-11-21T12:06:48;1.73;;;1.13;;
46084;SDS011;31823;47.032;8.310;2023-11-21T12:09:23;4.22;;;1.42;;
46084;SDS011;31823;47.032;8.310;2023-11-21T12:11:51;2.65;;;1.05;;
46084;SDS011;31823;47.032;8.310;2023-11-21T12:14:19;0.80;;;0.80;;
46084;SDS011;31823;47.032;8.310;2023-11-21T12:16:45;0.68;;;0.68;;
46084;SDS011;31823;47.032;8.310;2023-11-21T12:19:13;0.50;;;0.50;;
46084;SDS011;31823;47.032;8.310;2023-11-21T12:21:38;1.58;;;0.73;;
46084;SDS011;31823;47.032;8.310;2023-11-21T12:24:07;1.05;;;0.63;;
46084;SDS011;31823;47.032;8.310;2023-11-21T12:26:34;2.55;;;0.93;;
46084;SDS011;31823;47.032;8.310;2023-11-21T12:29:01;0.80;;;0.50;;
46084;SDS011;31823;47.032;8.310;2023-11-21T12:31:29;1.00;;;0.45;;
46084;SDS011;31823;47.032;8.310;2023-11-21T12:33:55;0.60;;;0.60;;
46084;SDS011;31823;47.032;8.310;2023-11-21T12:36:22;0.50;;;0.50;;
46084;SDS011;31823;47.032;8.310;2023-11-21T12:38:48;0.60;;;0.60;;
46084;SDS011;31823;47.032;8.310;2023-11-21T12:41:15;0.65;;;0.60;;
46084;SDS011;31823;47.032;8.310;2023-11-21T12:43:42;0.55;;;0.55;;
46084;SDS011;31823;47.032;8.310;2023-11-21T12:46:09;0.60;;;0.60;;
46084;SDS011;31823;47.032;8.310;2023-11-21T12:48:39;1.50;;;0.80;;
46084;SDS011;31823;47.032;8.310;2023-11-21T12:51:09;0.75;;;0.75;;
46084;SDS011;31823;47.032;8.310;2023-11-21T12:53:43;0.60;;;0.60;;
46084;SDS011;31823;47.032;8.310;2023-11-21T12:56:13;0.60;;;0.60;;
46084;SDS011;31823;47.032;8.310;2023-11-21T12:58:44;1.50;;;1.10;;
46084;SDS011;31823;47.032;8.310;2023-11-21T13:01:12;0.55;;;0.55;;
46084;SDS011;31823;47.032;8.310;2023-11-21T13:03:42;0.70;;;0.55;;
46084;SDS011;31823;47.032;8.310;2023-11-21T13:06:10;0.47;;;0.47;;
46084;SDS011;31823;47.032;8.310;2023-11-21T13:08:37;0.90;;;0.60;;
46084;SDS011;31823;47.032;8.310;2023-11-21T13:11:04;4.32;;;1.00;;
46084;SDS011;31823;47.032;8.310;2023-11-21T13:13:31;0.93;;;0.82;;
46084;SDS011;31823;47.032;8.310;2023-11-21T13:15:59;0.50;;;0.50;;
46084;SDS011;31823;47.032;8.310;2023-11-21T13:18:26;0.57;;;0.57;;
46084;SDS011;31823;47.032;8.310;2023-11-21T13:20:56;0.50;;;0.50;;
46084;SDS011;31823;47.032;8.310;2023-11-21T13:23:23;0.65;;;0.65;;
46084;SDS011;31823;47.032;8.310;2023-11-21T13:25:49;0.50;;;0.50;;
46084;SDS011;31823;47.032;8.310;2023-11-21T13:28:15;0.70;;;0.70;;
46084;SDS011;31823;47.032;8.310;2023-11-21T13:30:43;0.57;;;0.57;;
46084;SDS011;31823;47.032;8.310;2023-11-21T13:33:09;0.68;;;0.68;;
46084;SDS011;31823;47.032;8.310;2023-11-21T13:35:42;2.35;;;1.50;;
46084;SDS011;31823;47.032;8.310;2023-11-21T13:38:14;1.27;;;1.17;;
46084;SDS011;31823;47.032;8.310;2023-11-21T13:40:42;2.65;;;1.02;;
46084;SDS011;31823;47.032;8.310;2023-11-21T13:43:15;1.52;;;0.93;;
46084;SDS011;31823;47.032;8.310;2023-11-21T13:45:43;2.05;;;1.15;;
46084;SDS011;31823;47.032;8.310;2023-11-21T13:48:10;4.07;;;1.40;;
46084;SDS011;31823;47.032;8.310;2023-11-21T13:50:47;1.48;;;0.98;;
46084;SDS011;31823;47.032;8.310;2023-11-21T13:53:20;1.15;;;0.90;;
46084;SDS011;31823;47.032;8.310;2023-11-21T13:55:52;6.38;;;1.08;;
46084;SDS011;31823;47.032;8.310;2023-11-21T13:58:25;1.60;;;0.70;;
46084;SDS011;31823;47.032;8.310;2023-11-21T14:01:10;0.80;;;0.80;;
46084;SDS011;31823;47.032;8.310;2023-11-21T14:04:02;2.97;;;0.80;;
46084;SDS011;31823;47.032;8.310;2023-11-21T14:06:44;1.50;;;0.90;;
46084;SDS011;31823;47.032;8.310;2023-11-21T14:09:14;2.47;;;0.80;;
46084;SDS011;31823;47.032;8.310;2023-11-21T14:14:21;0.80;;;0.80;;
46084;SDS011;31823;47.032;8.310;2023-11-21T14:16:49;1.45;;;0.90;;
46084;SDS011;31823;47.032;8.310;2023-11-21T14:19:16;2.70;;;0.77;;
46084;SDS011;31823;47.032;8.310;2023-11-21T14:21:45;0.63;;;0.60;;
46084;SDS011;31823;47.032;8.310;2023-11-21T14:24:12;0.57;;;0.50;;
46084;SDS011;31823;47.032;8.310;2023-11-21T14:26:39;0.88;;;0.88;;
46084;SDS011;31823;47.032;8.310;2023-11-21T14:29:06;0.93;;;0.85;;
46084;SDS011;31823;47.032;8.310;2023-11-21T14:31:37;1.00;;;0.80;;
46084;SDS011;31823;47.032;8.310;2023-11-21T14:34:03;0.70;;;0.70;;
46084;SDS011;31823;47.032;8.310;2023-11-21T14:36:31;0.80;;;0.80;;
46084;SDS011;31823;47.032;8.310;2023-11-21T14:38:56;1.30;;;1.00;;
46084;SDS011;31823;47.032;8.310;2023-11-21T14:41:22;1.20;;;1.10;;
46084;SDS011;31823;47.032;8.310;2023-11-21T14:43:50;1.15;;;1.00;;
46084;SDS011;31823;47.032;8.310;2023-11-21T14:46:16;2.78;;;0.90;;
46084;SDS011;31823;47.032;8.310;2023-11-21T14:48:44;1.42;;;1.23;;
46084;SDS011;31823;47.032;8.310;2023-11-21T14:51:23;1.48;;;0.95;;
46084;SDS011;31823;47.032;8.310;2023-11-21T14:53:55;1.02;;;0.95;;
46084;SDS011;31823;47.032;8.310;2023-11-21T14:56:25;1.77;;;0.80;;
46084;SDS011;31823;47.032;8.310;2023-11-21T14:58:55;1.13;;;1.02;;
46084;SDS011;31823;47.032;8.310;2023-11-21T15:01:22;1.13;;;0.95;;
46084;SDS011;31823;47.032;8.310;2023-11-21T15:04:09;0.68;;;0.63;;
46084;SDS011;31823;47.032;8.310;2023-11-21T15:06:48;0.80;;;0.80;;
46084;SDS011;31823;47.032;8.310;2023-11-21T15:09:16;1.60;;;0.95;;